createdAt,value
2016-11-07T00:00:07.794Z,943.22
2016-11-07T00:01:07.431Z,943.21
2016-11-07T00:02:08.061Z,943.23
2016-11-07T00:03:07.613Z,943.24
2016-11-07T00:04:08.262Z,943.28
2016-11-07T00:05:07.939Z,943.24
2016-11-07T00:06:07.529Z,943.24
2016-11-07T00:07:07.347Z,943.26
2016-11-07T00:08:07.919Z,943.24
2016-11-07T00:09:07.835Z,943.24
2016-11-07T00:10:07.369Z,943.28
2016-11-07T00:11:07.868Z,943.26
2016-11-07T00:12:07.624Z,943.26
2016-11-07T00:13:08.296Z,943.25
2016-11-07T00:14:07.861Z,943.28
2016-11-07T00:15:07.413Z,943.28
2016-11-07T00:16:07.925Z,943.27
2016-11-07T00:17:07.914Z,943.25
2016-11-07T00:18:07.725Z,943.32
2016-11-07T00:19:08.289Z,943.30
2016-11-07T00:20:08.269Z,943.27
2016-11-07T00:21:07.920Z,943.34
2016-11-07T00:22:07.593Z,943.34
2016-11-07T00:23:08.093Z,943.35
2016-11-07T00:24:07.671Z,943.36
2016-11-07T00:25:08.188Z,943.34
2016-11-07T00:26:07.821Z,943.41
2016-11-07T00:27:07.599Z,943.38
2016-11-07T00:28:08.242Z,943.35
2016-11-07T00:29:07.901Z,943.36
2016-11-07T00:30:07.499Z,943.36
2016-11-07T00:31:08.121Z,943.33
2016-11-07T00:32:07.677Z,943.36
2016-11-07T00:33:08.259Z,943.37
2016-11-07T00:34:08.073Z,943.35
2016-11-07T00:35:07.630Z,943.35
2016-11-07T00:36:08.424Z,943.34
2016-11-07T00:37:07.984Z,943.34
2016-11-07T00:38:07.582Z,943.32
2016-11-07T00:39:08.170Z,943.41
2016-11-07T00:40:08.097Z,943.41
2016-11-07T00:41:07.838Z,943.49
2016-11-07T00:42:07.591Z,943.48
2016-11-07T00:43:08.290Z,943.49
2016-11-07T00:44:07.970Z,943.49
2016-11-07T00:45:07.589Z,943.49
2016-11-07T00:46:08.237Z,943.47
2016-11-07T00:47:07.947Z,943.52
2016-11-07T00:48:07.526Z,943.50
2016-11-07T00:49:08.082Z,943.46
2016-11-07T00:50:07.826Z,943.51
2016-11-07T00:51:07.334Z,943.50
2016-11-07T00:52:07.983Z,943.48
2016-11-07T00:53:07.658Z,943.47
2016-11-07T00:54:08.510Z,943.47
2016-11-07T00:55:08.196Z,943.48
2016-11-07T00:56:07.815Z,943.51
2016-11-07T00:57:07.441Z,943.48
2016-11-07T00:58:08.040Z,943.48
2016-11-07T00:59:07.724Z,943.48
2016-11-07T01:00:08.280Z,943.49
2016-11-07T01:01:08.280Z,943.49
2016-11-07T01:02:08.064Z,943.51
2016-11-07T01:03:07.714Z,943.52
2016-11-07T01:04:07.379Z,943.56
2016-11-07T01:05:08.044Z,943.55
2016-11-07T01:06:07.855Z,943.57
2016-11-07T01:07:07.707Z,943.54
2016-11-07T01:08:08.400Z,943.53
2016-11-07T01:09:07.585Z,943.55
2016-11-07T01:10:08.161Z,943.57
2016-11-07T01:11:07.886Z,943.61
2016-11-07T01:12:08.004Z,943.59
2016-11-07T01:13:07.801Z,943.61
2016-11-07T01:14:07.328Z,943.59
2016-11-07T01:15:08.027Z,943.57
2016-11-07T01:16:07.852Z,943.60
2016-11-07T01:17:07.862Z,943.57
2016-11-07T01:18:07.517Z,943.57
2016-11-07T01:19:08.221Z,943.57
2016-11-07T01:20:07.915Z,943.53
2016-11-07T01:21:07.688Z,943.53
2016-11-07T01:22:08.376Z,943.55
2016-11-07T01:23:07.998Z,943.53
2016-11-07T01:24:07.736Z,943.52
2016-11-07T01:25:08.244Z,943.54
2016-11-07T01:26:07.846Z,943.56
2016-11-07T01:27:07.305Z,943.53
2016-11-07T01:28:08.011Z,943.55
2016-11-07T01:29:07.611Z,943.58
2016-11-07T01:30:08.396Z,943.54
2016-11-07T01:31:08.086Z,943.56
2016-11-07T01:32:08.261Z,943.55
2016-11-07T01:33:07.876Z,943.52
2016-11-07T01:34:07.427Z,943.50
2016-11-07T01:35:08.047Z,943.50
2016-11-07T01:36:08.329Z,943.46
2016-11-07T01:37:08.066Z,943.47
2016-11-07T01:38:07.933Z,943.48
2016-11-07T01:39:09.148Z,943.48
2016-11-07T01:40:07.761Z,943.52
2016-11-07T01:41:07.364Z,943.51
2016-11-07T01:42:07.953Z,943.51
2016-11-07T01:43:07.612Z,943.51
2016-11-07T01:44:08.425Z,943.51
2016-11-07T01:45:08.123Z,943.50
2016-11-07T01:46:07.964Z,943.50
2016-11-07T01:47:07.743Z,943.51
2016-11-07T01:48:08.425Z,943.49
2016-11-07T01:49:08.015Z,943.55
2016-11-07T01:50:07.469Z,943.49
2016-11-07T01:51:08.234Z,943.49
2016-11-07T01:52:08.248Z,943.47
2016-11-07T01:53:07.817Z,943.46
2016-11-07T01:54:07.379Z,943.46
2016-11-07T01:55:08.077Z,943.45
2016-11-07T01:56:08.008Z,943.44
2016-11-07T01:57:07.633Z,943.43
2016-11-07T01:58:08.170Z,943.44
2016-11-07T01:59:08.160Z,943.45
2016-11-07T02:00:07.773Z,943.42
2016-11-07T02:01:07.521Z,943.44
2016-11-07T02:02:07.992Z,943.45
2016-11-07T02:03:07.768Z,943.50
2016-11-07T02:04:07.422Z,943.50
2016-11-07T02:05:08.067Z,943.54
2016-11-07T02:06:08.205Z,943.52
2016-11-07T02:07:07.619Z,943.50
2016-11-07T02:08:07.939Z,943.55
2016-11-07T02:09:07.996Z,943.50
2016-11-07T02:10:07.986Z,943.58
2016-11-07T02:11:08.387Z,943.54
2016-11-07T02:12:08.012Z,943.50
2016-11-07T02:13:07.944Z,943.47
2016-11-07T02:14:07.732Z,943.48
2016-11-07T02:15:08.657Z,943.46
2016-11-07T02:16:08.375Z,943.44
2016-11-07T02:17:07.920Z,943.42
2016-11-07T02:18:07.608Z,943.42
2016-11-07T02:19:08.245Z,943.45
2016-11-07T02:20:07.875Z,943.41
2016-11-07T02:21:07.491Z,943.41
2016-11-07T02:22:08.034Z,943.45
2016-11-07T02:23:08.253Z,943.43
2016-11-07T02:24:07.921Z,943.44
2016-11-07T02:25:07.651Z,943.45
2016-11-07T02:26:08.310Z,943.47
2016-11-07T02:27:13.577Z,943.46
2016-11-07T02:28:13.888Z,943.47
2016-11-07T02:29:13.192Z,943.44
2016-11-07T02:30:07.698Z,943.46
2016-11-07T02:31:08.238Z,943.47
2016-11-07T02:32:07.684Z,943.49
2016-11-07T02:33:08.022Z,943.44
2016-11-07T02:34:07.973Z,943.47
2016-11-07T02:35:08.168Z,943.51
2016-11-07T02:36:07.982Z,943.50
2016-11-07T02:37:07.602Z,943.50
2016-11-07T02:38:13.660Z,943.53
2016-11-07T02:39:09.801Z,943.49
2016-11-07T02:40:07.432Z,943.53
2016-11-07T02:41:08.098Z,943.53
2016-11-07T02:42:07.609Z,943.49
2016-11-07T02:43:08.096Z,943.51
2016-11-07T02:44:08.053Z,943.50
2016-11-07T02:45:07.849Z,943.53
2016-11-07T02:46:07.539Z,943.48
2016-11-07T02:47:08.195Z,943.50
2016-11-07T02:48:08.534Z,943.55
2016-11-07T02:49:08.273Z,943.52
2016-11-07T02:50:07.812Z,943.47
2016-11-07T02:51:07.530Z,943.47
2016-11-07T02:52:08.171Z,943.49
2016-11-07T02:53:07.465Z,943.48
2016-11-07T02:54:08.326Z,943.48
2016-11-07T02:55:08.016Z,943.48
2016-11-07T02:56:07.662Z,943.50
2016-11-07T02:57:08.396Z,943.54
2016-11-07T02:58:08.134Z,943.50
2016-11-07T02:59:07.767Z,943.51
2016-11-07T03:00:07.587Z,943.53
2016-11-07T03:01:08.310Z,943.53
2016-11-07T03:02:07.808Z,943.55
2016-11-07T03:03:08.109Z,943.53
2016-11-07T03:04:07.867Z,943.57
2016-11-07T03:05:08.381Z,943.57
2016-11-07T03:06:08.063Z,943.60
2016-11-07T03:07:07.899Z,943.60
2016-11-07T03:08:07.600Z,943.58
2016-11-07T03:09:08.279Z,943.59
2016-11-07T03:10:14.491Z,943.57
2016-11-07T03:11:08.315Z,943.62
2016-11-07T03:12:07.947Z,943.58
2016-11-07T03:13:07.594Z,943.59
2016-11-07T03:14:07.605Z,943.57
2016-11-07T03:15:07.565Z,943.56
2016-11-07T03:16:08.388Z,943.57
2016-11-07T03:17:08.134Z,943.58
2016-11-07T03:18:07.655Z,943.61
2016-11-07T03:19:08.361Z,943.60
2016-11-07T03:20:08.018Z,943.62
2016-11-07T03:21:07.529Z,943.60
2016-11-07T03:22:08.339Z,943.61
2016-11-07T03:23:07.461Z,943.62
2016-11-07T03:24:07.961Z,943.61
2016-11-07T03:25:07.559Z,943.64
2016-11-07T03:26:08.219Z,943.63
2016-11-07T03:27:07.811Z,943.63
2016-11-07T03:28:07.433Z,943.65
2016-11-07T03:29:08.258Z,943.70
2016-11-07T03:30:08.096Z,943.66
2016-11-07T03:31:07.664Z,943.67
2016-11-07T03:32:08.311Z,943.69
2016-11-07T03:33:07.997Z,943.70
2016-11-07T03:34:07.597Z,943.68
2016-11-07T03:35:08.615Z,943.69
2016-11-07T03:36:08.309Z,943.71
2016-11-07T03:37:07.886Z,943.70
2016-11-07T03:38:07.401Z,943.69
2016-11-07T03:39:08.002Z,943.73
2016-11-07T03:40:07.550Z,943.75
2016-11-07T03:41:08.132Z,943.76
2016-11-07T03:42:07.797Z,943.78
2016-11-07T03:43:07.358Z,943.76
2016-11-07T03:44:08.032Z,943.75
2016-11-07T03:45:07.629Z,943.82
2016-11-07T03:46:08.316Z,943.79
2016-11-07T03:47:07.907Z,943.82
2016-11-07T03:48:07.424Z,943.78
2016-11-07T03:49:08.009Z,943.78
2016-11-07T03:50:07.539Z,943.78
2016-11-07T03:51:08.178Z,943.81
2016-11-07T03:52:07.799Z,943.82
2016-11-07T03:53:07.395Z,943.80
2016-11-07T03:54:08.019Z,943.77
2016-11-07T03:55:07.786Z,943.80
2016-11-07T03:56:07.414Z,943.80
2016-11-07T03:57:08.100Z,943.82
2016-11-07T03:58:07.659Z,943.84
2016-11-07T03:59:08.180Z,943.83
2016-11-07T04:00:07.726Z,943.84
2016-11-07T04:01:08.377Z,943.85
2016-11-07T04:02:08.077Z,943.81
2016-11-07T04:03:07.699Z,943.82
2016-11-07T04:04:08.335Z,943.80
2016-11-07T04:05:07.989Z,943.78
2016-11-07T04:06:07.559Z,943.78
2016-11-07T04:07:08.133Z,943.78
2016-11-07T04:08:08.734Z,943.84
2016-11-07T04:09:07.382Z,943.84
2016-11-07T04:10:08.894Z,943.85
2016-11-07T04:11:07.490Z,943.83
2016-11-07T04:12:08.006Z,943.80
2016-11-07T04:13:07.905Z,943.84
2016-11-07T04:14:07.576Z,943.79
2016-11-07T04:15:08.143Z,943.80
2016-11-07T04:16:07.784Z,943.84
2016-11-07T04:17:07.470Z,943.81
2016-11-07T04:18:08.144Z,943.80
2016-11-07T04:19:07.624Z,943.82
2016-11-07T04:20:08.528Z,943.82
2016-11-07T04:21:08.222Z,943.83
2016-11-07T04:22:07.757Z,943.77
2016-11-07T04:23:07.278Z,943.80
2016-11-07T04:24:08.072Z,943.82
2016-11-07T04:25:07.590Z,943.80
2016-11-07T04:26:08.223Z,943.81
2016-11-07T04:27:08.068Z,943.79
2016-11-07T04:28:07.617Z,943.79
2016-11-07T04:29:08.200Z,943.75
2016-11-07T04:30:07.710Z,943.76
2016-11-07T04:31:08.339Z,943.73
2016-11-07T04:32:07.883Z,943.75
2016-11-07T04:33:07.703Z,943.74
2016-11-07T04:34:08.268Z,943.77
2016-11-07T04:35:07.904Z,943.74
2016-11-07T04:36:07.386Z,943.75
2016-11-07T04:37:07.914Z,943.70
2016-11-07T04:38:07.528Z,943.69
2016-11-07T04:39:08.101Z,943.73
2016-11-07T04:40:07.747Z,943.75
2016-11-07T04:41:08.342Z,943.76
2016-11-07T04:42:07.997Z,943.75
2016-11-07T04:43:07.524Z,943.76
2016-11-07T04:44:08.119Z,943.77
2016-11-07T04:45:07.760Z,943.72
2016-11-07T04:46:07.365Z,943.75
2016-11-07T04:47:08.031Z,943.73
2016-11-07T04:48:07.584Z,943.72
2016-11-07T04:49:08.210Z,943.71
2016-11-07T04:50:08.041Z,943.78
2016-11-07T04:51:07.699Z,943.79
2016-11-07T04:52:08.469Z,943.82
2016-11-07T04:53:08.229Z,943.82
2016-11-07T04:54:07.940Z,943.87
2016-11-07T04:55:07.696Z,943.87
2016-11-07T04:56:08.386Z,943.89
2016-11-07T04:57:08.112Z,943.91
2016-11-07T04:58:07.583Z,943.91
2016-11-07T04:59:07.706Z,943.93
2016-11-07T05:00:08.278Z,943.95
2016-11-07T05:01:07.798Z,944.01
2016-11-07T05:02:07.360Z,943.98
2016-11-07T05:03:07.982Z,944.05
2016-11-07T05:04:07.848Z,944.00
2016-11-07T05:05:07.731Z,944.01
2016-11-07T05:06:08.386Z,944.07
2016-11-07T05:07:08.114Z,944.05
2016-11-07T05:08:13.375Z,944.02
2016-11-07T05:09:08.110Z,944.05
2016-11-07T05:10:07.614Z,944.06
2016-11-07T05:11:08.238Z,944.04
2016-11-07T05:12:07.798Z,944.01
2016-11-07T05:13:07.354Z,944.03
2016-11-07T05:14:07.982Z,944.04
2016-11-07T05:15:07.605Z,944.05
2016-11-07T05:16:08.172Z,944.04
2016-11-07T05:17:07.882Z,944.02
2016-11-07T05:18:07.453Z,944.03
2016-11-07T05:19:08.141Z,944.04
2016-11-07T05:20:08.211Z,944.05
2016-11-07T05:21:07.714Z,944.06
2016-11-07T05:22:07.580Z,944.07
2016-11-07T05:23:08.369Z,944.11
2016-11-07T05:24:08.003Z,944.10
2016-11-07T05:25:10.369Z,944.11
2016-11-07T05:26:08.182Z,944.11
2016-11-07T05:27:07.782Z,944.09
2016-11-07T05:28:07.403Z,944.08
2016-11-07T05:29:08.066Z,944.09
2016-11-07T05:30:07.640Z,944.12
2016-11-07T05:31:08.123Z,944.13
2016-11-07T05:32:08.157Z,944.13
2016-11-07T05:33:07.934Z,944.13
2016-11-07T05:34:07.767Z,944.11
2016-11-07T05:35:07.352Z,944.14
2016-11-07T05:36:08.001Z,944.18
2016-11-07T05:37:07.606Z,944.20
2016-11-07T05:38:08.156Z,944.20
2016-11-07T05:39:08.082Z,944.20
2016-11-07T05:40:07.709Z,944.19
2016-11-07T05:41:08.198Z,944.22
2016-11-07T05:42:07.432Z,944.21
2016-11-07T05:43:07.892Z,944.25
2016-11-07T05:44:07.628Z,944.20
2016-11-07T05:45:08.235Z,944.19
2016-11-07T05:46:07.841Z,944.18
2016-11-07T05:47:09.779Z,944.18
2016-11-07T05:48:08.153Z,944.22
2016-11-07T05:49:07.734Z,944.21
2016-11-07T05:50:07.447Z,944.25
2016-11-07T05:51:08.094Z,944.22
2016-11-07T05:52:07.631Z,944.23
2016-11-07T05:53:08.328Z,944.19
2016-11-07T05:54:07.851Z,944.25
2016-11-07T05:55:07.436Z,944.20
2016-11-07T05:56:08.023Z,944.24
2016-11-07T05:57:07.658Z,944.22
2016-11-07T05:58:08.458Z,944.32
2016-11-07T05:59:08.114Z,944.26
2016-11-07T06:00:07.707Z,944.28
2016-11-07T06:01:08.509Z,944.27
2016-11-07T06:02:08.199Z,944.32
2016-11-07T06:03:07.869Z,944.33
2016-11-07T06:04:07.414Z,944.39
2016-11-07T06:05:08.051Z,944.40
2016-11-07T06:06:07.672Z,944.37
2016-11-07T06:07:08.414Z,944.30
2016-11-07T06:08:08.020Z,944.29
2016-11-07T06:09:07.996Z,944.30
2016-11-07T06:10:07.530Z,944.32
2016-11-07T06:11:07.374Z,944.34
2016-11-07T06:12:08.059Z,944.40
2016-11-07T06:13:07.747Z,944.36
2016-11-07T06:14:07.373Z,944.42
2016-11-07T06:15:08.046Z,944.34
2016-11-07T06:16:07.850Z,944.42
2016-11-07T06:17:07.631Z,944.42
2016-11-07T06:18:07.343Z,944.42
2016-11-07T06:19:07.953Z,944.42
2016-11-07T06:20:07.707Z,944.34
2016-11-07T06:21:07.452Z,944.38
2016-11-07T06:22:08.531Z,944.35
2016-11-07T06:23:09.000Z,944.37
2016-11-07T06:24:07.464Z,944.34
2016-11-07T06:25:08.129Z,944.33
2016-11-07T06:26:07.809Z,944.31
2016-11-07T06:27:07.579Z,944.32
2016-11-07T06:28:09.251Z,944.32
2016-11-07T06:29:07.799Z,944.32
2016-11-07T06:30:07.479Z,944.32
2016-11-07T06:31:08.187Z,944.42
2016-11-07T06:32:07.898Z,944.40
2016-11-07T06:33:07.514Z,944.43
2016-11-07T06:34:08.190Z,944.41
2016-11-07T06:35:07.851Z,944.44
2016-11-07T06:36:07.541Z,944.47
2016-11-07T06:37:08.212Z,944.46
2016-11-07T06:38:07.867Z,944.44
2016-11-07T06:39:07.996Z,944.45
2016-11-07T06:40:07.242Z,944.49
2016-11-07T06:41:07.936Z,944.50
2016-11-07T06:42:07.621Z,944.48
2016-11-07T06:43:07.273Z,944.47
2016-11-07T06:44:07.987Z,944.49
2016-11-07T06:45:07.586Z,944.54
2016-11-07T06:46:07.381Z,944.57
2016-11-07T06:47:08.038Z,944.54
2016-11-07T06:48:07.684Z,944.54
2016-11-07T06:49:07.355Z,944.57
2016-11-07T06:50:07.988Z,944.56
2016-11-07T06:51:07.729Z,944.59
2016-11-07T06:52:07.394Z,944.59
2016-11-07T06:53:08.059Z,944.56
2016-11-07T06:54:07.782Z,944.59
2016-11-07T06:55:07.390Z,944.58
2016-11-07T06:56:08.063Z,944.58
2016-11-07T06:57:07.742Z,944.62
2016-11-07T06:58:07.431Z,944.65
2016-11-07T06:59:08.187Z,944.67
2016-11-07T07:00:07.843Z,944.71
2016-11-07T07:01:07.490Z,944.66
2016-11-07T07:02:08.224Z,944.70
2016-11-07T07:03:07.804Z,944.73
2016-11-07T07:04:07.505Z,944.74
2016-11-07T07:05:08.171Z,944.75
2016-11-07T07:06:07.859Z,944.78
2016-11-07T07:07:07.570Z,944.78
2016-11-07T07:08:08.189Z,944.81
2016-11-07T07:09:07.944Z,944.82
2016-11-07T07:10:07.605Z,944.85
2016-11-07T07:11:07.269Z,944.87
2016-11-07T07:12:07.935Z,944.91
2016-11-07T07:13:07.695Z,944.88
2016-11-07T07:14:07.372Z,944.90
2016-11-07T07:15:08.015Z,944.92
2016-11-07T07:16:07.751Z,944.91
2016-11-07T07:17:07.521Z,944.93
2016-11-07T07:18:07.228Z,944.93
2016-11-07T07:19:07.915Z,944.96
2016-11-07T07:20:07.585Z,944.99
2016-11-07T07:21:07.233Z,945.04
2016-11-07T07:22:09.037Z,945.02
2016-11-07T07:23:07.633Z,945.04
2016-11-07T07:24:07.358Z,945.05
2016-11-07T07:25:07.969Z,945.08
2016-11-07T07:26:07.597Z,945.09
2016-11-07T07:27:07.298Z,945.10
2016-11-07T07:28:07.943Z,945.08
2016-11-07T07:29:07.641Z,945.10
2016-11-07T07:30:07.333Z,945.09
2016-11-07T07:31:08.030Z,945.05
2016-11-07T07:32:07.771Z,945.05
2016-11-07T07:33:07.421Z,945.04
2016-11-07T07:34:08.098Z,945.04
2016-11-07T07:35:07.731Z,945.05
2016-11-07T07:36:07.392Z,945.09
2016-11-07T07:37:08.042Z,945.10
2016-11-07T07:38:07.736Z,945.07
2016-11-07T07:39:07.467Z,945.03
2016-11-07T07:40:08.218Z,945.09
2016-11-07T07:41:07.814Z,945.09
2016-11-07T07:42:13.991Z,945.05
2016-11-07T07:43:08.132Z,945.08
2016-11-07T07:44:07.879Z,945.10
2016-11-07T07:45:07.480Z,945.07
2016-11-07T07:46:08.125Z,945.08
2016-11-07T07:47:07.854Z,945.10
2016-11-07T07:48:07.575Z,945.11
2016-11-07T07:49:13.730Z,945.13
2016-11-07T07:50:07.826Z,945.11
2016-11-07T07:51:07.489Z,945.16
2016-11-07T07:52:08.163Z,945.15
2016-11-07T07:53:07.888Z,945.21
2016-11-07T07:54:07.572Z,945.17
2016-11-07T07:55:08.215Z,945.26
2016-11-07T07:56:07.878Z,945.34
2016-11-07T07:57:07.557Z,945.35
2016-11-07T07:58:07.259Z,945.34
2016-11-07T07:59:07.954Z,945.35
2016-11-07T08:00:07.663Z,945.38
2016-11-07T08:01:07.278Z,945.39
2016-11-07T08:02:08.015Z,945.39
2016-11-07T08:03:07.645Z,945.41
2016-11-07T08:04:07.346Z,945.39
2016-11-07T08:05:07.488Z,945.42
2016-11-07T08:06:08.200Z,945.44
2016-11-07T08:07:07.891Z,945.46
2016-11-07T08:08:07.548Z,945.52
2016-11-07T08:09:07.285Z,945.48
2016-11-07T08:10:07.954Z,945.52
2016-11-07T08:11:07.578Z,945.56
2016-11-07T08:12:07.246Z,945.56
2016-11-07T08:13:07.935Z,945.56
2016-11-07T08:14:07.697Z,945.62
2016-11-07T08:15:07.293Z,945.58
2016-11-07T08:16:08.004Z,945.54
2016-11-07T08:17:07.833Z,945.59
2016-11-07T08:18:07.529Z,945.58
2016-11-07T08:19:07.378Z,945.59
2016-11-07T08:20:07.627Z,945.61
2016-11-07T08:21:07.337Z,945.63
2016-11-07T08:22:07.955Z,945.57
2016-11-07T08:23:07.689Z,945.68
2016-11-07T08:24:07.431Z,945.67
2016-11-07T08:25:08.070Z,945.65
2016-11-07T08:26:07.816Z,945.71
2016-11-07T08:27:07.439Z,945.69
2016-11-07T08:28:08.130Z,945.75
2016-11-07T08:29:07.863Z,945.73
2016-11-07T08:30:07.499Z,945.78
2016-11-07T08:31:08.180Z,945.79
2016-11-07T08:32:07.905Z,945.80
2016-11-07T08:33:07.585Z,945.81
2016-11-07T08:34:08.355Z,945.84
2016-11-07T08:35:07.736Z,945.85
2016-11-07T08:36:07.396Z,945.89
2016-11-07T08:37:08.079Z,945.96
2016-11-07T08:38:07.744Z,945.99
2016-11-07T08:39:07.419Z,945.95
2016-11-07T08:40:08.141Z,945.95
2016-11-07T08:41:07.799Z,945.94
2016-11-07T08:42:07.497Z,946.00
2016-11-07T08:43:08.166Z,945.99
2016-11-07T08:44:07.770Z,945.97
2016-11-07T08:45:07.542Z,945.99
2016-11-07T08:46:08.183Z,945.98
2016-11-07T08:47:07.916Z,945.94
2016-11-07T08:48:07.635Z,945.96
2016-11-07T08:49:07.411Z,945.98
2016-11-07T08:50:07.946Z,946.03
2016-11-07T08:51:07.658Z,946.01
2016-11-07T08:52:07.352Z,946.07
2016-11-07T08:53:08.067Z,946.10
2016-11-07T08:54:07.784Z,946.05
2016-11-07T08:55:07.471Z,946.06
2016-11-07T08:56:08.148Z,946.08
2016-11-07T08:57:07.802Z,946.06
2016-11-07T08:58:07.461Z,946.05
2016-11-07T08:59:08.174Z,946.13
2016-11-07T09:00:07.902Z,946.13
2016-11-07T09:01:07.505Z,946.16
2016-11-07T09:02:08.226Z,946.13
2016-11-07T09:03:07.903Z,946.19
2016-11-07T09:04:07.666Z,946.19
2016-11-07T09:05:08.010Z,946.17
2016-11-07T09:06:07.616Z,946.16
2016-11-07T09:07:07.306Z,946.18
2016-11-07T09:08:07.983Z,946.19
2016-11-07T09:09:07.636Z,946.19
2016-11-07T09:10:07.423Z,946.21
2016-11-07T09:11:08.024Z,946.20
2016-11-07T09:12:07.762Z,946.23
2016-11-07T09:13:07.415Z,946.24
2016-11-07T09:14:08.116Z,946.25
2016-11-07T09:15:07.815Z,946.30
2016-11-07T09:16:07.434Z,946.30
2016-11-07T09:17:08.197Z,946.33
2016-11-07T09:18:07.919Z,946.30
2016-11-07T09:19:07.568Z,946.33
2016-11-07T09:20:07.839Z,946.34
2016-11-07T09:21:07.501Z,946.34
2016-11-07T09:22:08.098Z,946.38
2016-11-07T09:23:07.761Z,946.39
2016-11-07T09:24:07.453Z,946.36
2016-11-07T09:25:08.179Z,946.39
2016-11-07T09:26:13.574Z,946.37
2016-11-07T09:27:07.521Z,946.35
2016-11-07T09:28:08.160Z,946.32
2016-11-07T09:29:07.906Z,946.32
2016-11-07T09:30:07.513Z,946.34
2016-11-07T09:31:08.157Z,946.35
2016-11-07T09:32:07.869Z,946.39
2016-11-07T09:33:07.480Z,946.37
2016-11-07T09:34:08.122Z,946.40
2016-11-07T09:35:07.862Z,946.40
2016-11-07T09:36:07.592Z,946.35
2016-11-07T09:37:08.202Z,946.38
2016-11-07T09:38:07.938Z,946.38
2016-11-07T09:39:07.594Z,946.39
2016-11-07T09:40:07.307Z,946.36
2016-11-07T09:41:07.961Z,946.34
2016-11-07T09:42:07.636Z,946.41
2016-11-07T09:43:07.314Z,946.42
2016-11-07T09:44:08.004Z,946.39
2016-11-07T09:45:07.710Z,946.39
2016-11-07T09:46:07.310Z,946.47
2016-11-07T09:47:08.050Z,946.40
2016-11-07T09:48:07.785Z,946.41
2016-11-07T09:49:07.801Z,946.39
2016-11-07T09:50:07.485Z,946.43
2016-11-07T09:51:08.109Z,946.50
2016-11-07T09:52:07.752Z,946.51
2016-11-07T09:53:07.488Z,946.46
2016-11-07T09:54:08.121Z,946.49
2016-11-07T09:55:07.843Z,946.48
2016-11-07T09:56:07.708Z,946.54
2016-11-07T09:57:07.214Z,946.52
2016-11-07T09:58:08.221Z,946.56
2016-11-07T09:59:07.581Z,946.50
2016-11-07T10:00:07.293Z,946.50
2016-11-07T10:01:07.906Z,946.51
2016-11-07T10:02:07.650Z,946.50
2016-11-07T10:03:07.249Z,946.53
2016-11-07T10:04:07.989Z,946.51
2016-11-07T10:05:07.963Z,946.48
2016-11-07T10:06:07.670Z,946.46
2016-11-07T10:07:07.266Z,946.43
2016-11-07T10:08:07.943Z,946.42
2016-11-07T10:09:07.649Z,946.43
2016-11-07T10:10:07.349Z,946.35
2016-11-07T10:11:08.007Z,946.41
2016-11-07T10:12:07.633Z,946.43
2016-11-07T10:13:07.315Z,946.40
2016-11-07T10:14:07.999Z,946.41
2016-11-07T10:15:07.720Z,946.42
2016-11-07T10:16:07.369Z,946.45
2016-11-07T10:17:08.140Z,946.44
2016-11-07T10:18:07.872Z,946.41
2016-11-07T10:19:07.779Z,946.43
2016-11-07T10:20:07.410Z,946.39
2016-11-07T10:21:08.051Z,946.44
2016-11-07T10:22:07.709Z,946.45
2016-11-07T10:23:07.442Z,946.46
2016-11-07T10:24:08.067Z,946.52
2016-11-07T10:25:07.796Z,946.53
2016-11-07T10:26:07.444Z,946.52
2016-11-07T10:27:08.130Z,946.58
2016-11-07T10:28:07.766Z,946.61
2016-11-07T10:29:07.488Z,946.62
2016-11-07T10:30:08.140Z,946.67
2016-11-07T10:31:07.732Z,946.67
2016-11-07T10:32:07.445Z,946.65
2016-11-07T10:33:08.111Z,946.70
2016-11-07T10:34:08.046Z,946.69
2016-11-07T10:35:07.708Z,946.69
2016-11-07T10:36:07.369Z,946.69
2016-11-07T10:37:08.067Z,946.69
2016-11-07T10:38:07.678Z,946.69
2016-11-07T10:39:07.474Z,946.68
2016-11-07T10:40:08.136Z,946.66
2016-11-07T10:41:08.327Z,946.65
2016-11-07T10:42:07.522Z,946.67
2016-11-07T10:43:08.170Z,946.70
2016-11-07T10:44:07.893Z,946.68
2016-11-07T10:45:07.626Z,946.66
2016-11-07T10:46:07.281Z,946.62
2016-11-07T10:47:08.034Z,946.64
2016-11-07T10:48:07.678Z,946.66
2016-11-07T10:49:07.360Z,946.61
2016-11-07T10:50:08.120Z,946.58
2016-11-07T10:51:07.781Z,946.60
2016-11-07T10:52:07.468Z,946.59
2016-11-07T10:53:08.143Z,946.59
2016-11-07T10:54:07.816Z,946.59
2016-11-07T10:55:07.590Z,946.62
2016-11-07T10:56:08.211Z,946.66
2016-11-07T10:57:07.839Z,946.61
2016-11-07T10:58:07.548Z,946.60
2016-11-07T10:59:07.278Z,946.59
2016-11-07T11:00:07.981Z,946.64
2016-11-07T11:01:07.591Z,946.67
2016-11-07T11:02:07.300Z,946.67
2016-11-07T11:03:07.955Z,946.72
2016-11-07T11:04:07.830Z,946.72
2016-11-07T11:05:07.450Z,946.74
2016-11-07T11:06:08.070Z,946.71
2016-11-07T11:07:07.773Z,946.76
2016-11-07T11:08:07.422Z,946.79
2016-11-07T11:09:08.130Z,946.70
2016-11-07T11:10:07.824Z,946.71
2016-11-07T11:11:07.477Z,946.66
2016-11-07T11:12:08.178Z,946.66
2016-11-07T11:13:07.888Z,946.71
2016-11-07T11:14:07.569Z,946.70
2016-11-07T11:15:07.307Z,946.67
2016-11-07T11:16:07.971Z,946.68
2016-11-07T11:17:07.801Z,946.66
2016-11-07T11:18:07.499Z,946.66
2016-11-07T11:19:08.490Z,946.72
2016-11-07T11:20:08.204Z,946.73
2016-11-07T11:21:07.851Z,946.69
2016-11-07T11:22:07.556Z,946.73
2016-11-07T11:23:07.291Z,946.74
2016-11-07T11:24:07.937Z,946.69
2016-11-07T11:25:07.706Z,946.68
2016-11-07T11:26:07.371Z,946.72
2016-11-07T11:27:08.043Z,946.70
2016-11-07T11:28:07.710Z,946.67
2016-11-07T11:29:07.385Z,946.73
2016-11-07T11:30:08.111Z,946.74
2016-11-07T11:31:07.813Z,946.73
2016-11-07T11:32:07.561Z,946.76
2016-11-07T11:33:08.239Z,946.76
2016-11-07T11:34:08.112Z,946.79
2016-11-07T11:35:07.676Z,946.80
2016-11-07T11:36:07.353Z,946.81
2016-11-07T11:37:07.981Z,946.83
2016-11-07T11:38:07.729Z,946.80
2016-11-07T11:39:07.424Z,946.81
2016-11-07T11:40:08.040Z,946.80
2016-11-07T11:41:07.727Z,946.83
2016-11-07T11:42:07.366Z,946.72
2016-11-07T11:43:08.077Z,946.73
2016-11-07T11:44:07.687Z,946.76
2016-11-07T11:45:07.429Z,946.82
2016-11-07T11:46:08.037Z,946.76
2016-11-07T11:47:07.748Z,946.80
2016-11-07T11:48:07.428Z,946.85
2016-11-07T11:49:08.348Z,946.85
2016-11-07T11:50:07.900Z,946.87
2016-11-07T11:51:07.508Z,946.89
2016-11-07T11:52:07.224Z,946.89
2016-11-07T11:53:07.876Z,946.87
2016-11-07T11:54:07.602Z,946.89
2016-11-07T11:55:07.316Z,946.86
2016-11-07T11:56:07.931Z,946.85
2016-11-07T11:57:07.619Z,946.93
2016-11-07T11:58:07.330Z,946.85
2016-11-07T11:59:08.076Z,946.86
2016-11-07T12:00:07.791Z,946.87
2016-11-07T12:01:08.461Z,946.91
2016-11-07T12:02:08.159Z,946.89
2016-11-07T12:03:07.644Z,946.86
2016-11-07T12:04:07.663Z,946.84
2016-11-07T12:05:07.403Z,946.84
2016-11-07T12:06:08.018Z,946.87
2016-11-07T12:07:07.737Z,946.82
2016-11-07T12:08:07.399Z,946.84
2016-11-07T12:09:08.108Z,946.88
2016-11-07T12:10:07.790Z,946.83
2016-11-07T12:11:07.399Z,946.89
2016-11-07T12:12:08.093Z,946.89
2016-11-07T12:13:07.767Z,946.89
2016-11-07T12:14:07.435Z,946.89
2016-11-07T12:15:08.133Z,946.85
2016-11-07T12:16:07.755Z,946.85
2016-11-07T12:17:07.566Z,946.91
2016-11-07T12:18:07.251Z,946.88
2016-11-07T12:19:07.960Z,946.87
2016-11-07T12:20:07.792Z,946.87
2016-11-07T12:21:07.424Z,946.85
2016-11-07T12:22:08.100Z,946.80
2016-11-07T12:23:07.783Z,946.83
2016-11-07T12:24:07.447Z,946.81
2016-11-07T12:25:08.137Z,946.81
2016-11-07T12:26:07.855Z,946.76
2016-11-07T12:27:07.494Z,946.76
2016-11-07T12:28:08.173Z,946.77